Time;durP1;ratioP1;P1;durP2;ratioP2;P2;SDS_P1;SDS_P2;PMS_P1;PMS_P2;Temp;Humidity;BMP_temperature;BMP_pressure;BME280_temperature;BME280_humidity;BME280_pressure;Samples;Min_cycle;Max_cycle;Signal;HPM_P1;HPM_P2
2023/05/19 00:01:00;;;;;;;1.63;1.13;;;;;;;;;;5059308;27;92050;-59
2023/05/19 00:03:30;;;;;;;1.40;0.93;;;;;;;;;;5048076;27;95241;-58
2023/05/19 00:06:00;;;;;;;1.13;0.90;;;;;;;;;;5058418;27;94732;-57
2023/05/19 00:08:29;;;;;;;2.00;1.13;;;;;;;;;;5049156;27;92072;-59
2023/05/19 00:10:57;;;;;;;0.87;0.77;;;;;;;;;;5060779;27;92128;-58
2023/05/19 00:13:26;;;;;;;1.23;0.93;;;;;;;;;;5052249;27;94136;-58
2023/05/19 00:15:56;;;;;;;1.03;0.90;;;;;;;;;;5056377;27;93876;-57
2023/05/19 00:18:28;;;;;;;1.10;1.00;;;;;;;;;;5060942;27;92031;-58
2023/05/19 00:20:58;;;;;;;1.63;1.00;;;;;;;;;;5060553;27;91464;-57
2023/05/19 00:30:21;;;;;;;1.00;0.90;;;;;;;;;;5042927;27;93105;-58
2023/05/19 00:33:26;;;;;;;2.63;0.90;;;;;;;;;;5054587;27;92659;-58
2023/05/19 00:35:54;;;;;;;1.67;0.87;;;;;;;;;;5059323;27;94216;-58
2023/05/19 00:38:23;;;;;;;1.47;0.90;;;;;;;;;;5059182;27;93948;-57
2023/05/19 00:40:51;;;;;;;2.33;1.30;;;;;;;;;;5059236;27;92117;-57
2023/05/19 00:43:20;;;;;;;1.97;0.80;;;;;;;;;;5059600;27;91948;-58
2023/05/19 00:45:48;;;;;;;0.73;0.63;;;;;;;;;;5059085;27;94327;-58
2023/05/19 00:48:16;;;;;;;0.87;0.60;;;;;;;;;;5059631;27;94193;-57
2023/05/19 00:50:46;;;;;;;1.30;1.00;;;;;;;;;;5058913;27;92236;-57
2023/05/19 00:53:15;;;;;;;0.77;0.50;;;;;;;;;;5059120;27;92036;-57
2023/05/19 00:55:43;;;;;;;0.77;0.70;;;;;;;;;;5058611;27;95094;-57
2023/05/19 00:58:12;;;;;;;1.47;0.87;;;;;;;;;;5058833;27;94831;-58
2023/05/19 01:00:41;;;;;;;1.40;0.70;;;;;;;;;;5059580;27;92171;-58
2023/05/19 01:03:10;;;;;;;1.07;0.80;;;;;;;;;;5059317;27;92004;-57
2023/05/19 01:05:40;;;;;;;1.90;0.87;;;;;;;;;;5058720;27;94347;-58
2023/05/19 01:08:10;;;;;;;0.53;0.43;;;;;;;;;;5053784;27;94275;-58
2023/05/19 01:10:38;;;;;;;1.10;1.00;;;;;;;;;;5058843;27;92327;-57
2023/05/19 01:13:06;;;;;;;1.33;0.80;;;;;;;;;;5059906;27;91331;-57
2023/05/19 01:15:38;;;;;;;1.37;0.70;;;;;;;;;;5058673;27;94270;-57
2023/05/19 01:18:09;;;;;;;0.50;0.50;;;;;;;;;;5058089;27;94186;-57
2023/05/19 01:20:39;;;;;;;9.83;0.93;;;;;;;;;;5057447;27;94246;-57
2023/05/19 01:29:46;;;;;;;3.73;0.97;;;;;;;;;;4950676;28;93981;-58
2023/05/19 01:32:16;;;;;;;0.60;0.60;;;;;;;;;;4959143;28;92812;-57
2023/05/19 01:34:46;;;;;;;0.30;0.30;;;;;;;;;;4958740;28;92168;-58
2023/05/19 01:37:14;;;;;;;0.90;0.80;;;;;;;;;;4958940;28;93141;-58
2023/05/19 01:39:43;;;;;;;0.83;0.83;;;;;;;;;;4959200;28;93826;-57
2023/05/19 01:42:12;;;;;;;1.27;0.60;;;;;;;;;;4957710;28;92729;-58
2023/05/19 01:44:40;;;;;;;0.87;0.70;;;;;;;;;;4956932;28;92560;-58
2023/05/19 01:47:09;;;;;;;1.90;0.70;;;;;;;;;;4957797;28;94104;-57
2023/05/19 01:49:39;;;;;;;0.67;0.60;;;;;;;;;;4958394;28;94687;-57
2023/05/19 01:52:07;;;;;;;0.60;0.60;;;;;;;;;;4958081;28;92015;-58
2023/05/19 02:09:25;;;;;;;0.60;0.60;;;;;;;;;;4949199;28;91235;-57
2023/05/19 02:12:03;;;;;;;2.47;0.90;;;23.50;42.40;;;;;;4958046;28;93254;-58
2023/05/19 02:14:33;;;;;;;0.40;0.40;;;23.50;43.00;;;;;;4939685;28;92921;-57
2023/05/19 02:17:01;;;;;;;0.30;0.30;;;23.50;43.00;;;;;;4945068;28;93043;-58
2023/05/19 02:19:31;;;;;;;3.03;0.60;;;23.50;43.00;;;;;;4959891;28;91940;-58
2023/05/19 02:21:59;;;;;;;1.47;0.60;;;23.50;43.00;;;;;;4959432;28;94281;-58
2023/05/19 02:24:29;;;;;;;0.57;0.57;;;23.50;43.00;;;;;;4967210;28;93847;-57
2023/05/19 02:26:57;;;;;;;0.60;0.50;;;23.50;43.00;;;;;;4959026;28;92066;-58
2023/05/19 02:29:25;;;;;;;0.83;0.80;;;23.50;43.00;;;;;;4959194;28;92023;-58
2023/05/19 02:31:53;;;;;;;0.60;0.40;;;23.50;42.90;;;;;;4959057;28;94409;-58
2023/05/19 02:34:21;;;;;;;0.53;0.53;;;23.50;42.90;;;;;;4959735;28;92597;-58
2023/05/19 02:36:50;;;;;;;0.87;0.50;;;23.50;43.60;;;;;;4960812;28;91992;-58
2023/05/19 02:39:18;;;;;;;1.37;0.77;;;23.50;43.60;;;;;;4962716;28;91920;-56
2023/05/19 02:41:47;;;;;;;0.90;0.60;;;23.50;42.90;;;;;;4961312;28;94213;-58
2023/05/19 02:44:15;;;;;;;0.53;0.53;;;23.50;43.00;;;;;;4961983;28;92514;-57
2023/05/19 02:46:43;;;;;;;1.80;0.97;;;23.50;42.90;;;;;;4962487;28;92058;-58
2023/05/19 02:49:13;;;;;;;0.73;0.70;;;23.50;43.00;;;;;;4960363;28;92441;-57
2023/05/19 02:51:41;;;;;;;0.70;0.70;;;23.50;43.00;;;;;;4962385;28;92945;-58
2023/05/19 02:54:09;;;;;;;1.60;0.70;;;23.50;43.00;;;;;;4962337;28;94019;-58
2023/05/19 02:56:37;;;;;;;0.40;0.40;;;23.50;43.00;;;;;;4962390;28;92060;-57
2023/05/19 02:59:06;;;;;;;0.50;0.50;;;23.50;43.00;;;;;;4962899;28;91342;-58
2023/05/19 03:01:36;;;;;;;0.60;0.40;;;23.50;43.00;;;;;;4962295;28;94175;-57
2023/05/19 03:04:05;;;;;;;2.90;0.47;;;23.50;43.00;;;;;;4968890;28;93792;-58
2023/05/19 03:06:33;;;;;;;0.30;0.30;;;23.50;43.00;;;;;;4960631;28;93037;-58
2023/05/19 03:09:01;;;;;;;0.90;0.60;;;23.50;43.00;;;;;;4961494;28;92006;-58
2023/05/19 03:11:29;;;;;;;0.30;0.30;;;23.50;43.00;;;;;;4960423;28;94184;-58
2023/05/19 03:13:58;;;;;;;0.50;0.50;;;23.50;43.00;;;;;;4960830;28;93998;-58
2023/05/19 03:16:28;;;;;;;0.50;0.50;;;23.40;42.90;;;;;;4961565;28;92219;-58
2023/05/19 03:18:56;;;;;;;0.83;0.50;;;23.40;42.90;;;;;;4961436;28;92162;-57
2023/05/19 03:21:24;;;;;;;0.97;0.60;;;23.40;42.90;;;;;;4961322;28;94409;-58
2023/05/19 03:23:53;;;;;;;0.40;0.40;;;23.40;42.90;;;;;;4967240;28;93825;-58
2023/05/19 03:26:23;;;;;;;0.57;0.50;;;23.40;42.90;;;;;;4965784;28;92609;-57
2023/05/19 03:28:51;;;;;;;0.70;0.70;;;23.40;42.90;;;;;;4961566;28;92202;-58
2023/05/19 03:31:19;;;;;;;0.60;0.53;;;23.40;42.90;;;;;;4960498;28;95142;-58
2023/05/19 03:33:48;;;;;;;0.50;0.50;;;23.40;43.00;;;;;;4961360;28;93905;-57
2023/05/19 03:36:16;;;;;;;0.60;0.60;;;23.40;42.90;;;;;;4961928;28;92036;-57
2023/05/19 03:38:44;;;;;;;1.50;1.10;;;23.40;43.00;;;;;;4962207;28;92055;-58
2023/05/19 03:41:12;;;;;;;2.50;1.47;;;23.40;42.90;;;;;;4960534;28;94150;-58
2023/05/19 03:43:40;;;;;;;1.27;0.80;;;23.40;43.00;;;;;;4960943;28;94016;-58
2023/05/19 03:46:08;;;;;;;2.53;1.13;;;23.40;42.90;;;;;;4961409;28;91967;-57
2023/05/19 03:48:37;;;;;;;2.43;1.40;;;23.40;42.90;;;;;;4960648;28;91615;-57
2023/05/19 03:51:07;;;;;;;1.10;1.00;;;23.40;43.00;;;;;;4960298;28;93130;-58
2023/05/19 03:53:36;;;;;;;0.83;0.80;;;23.30;43.50;;;;;;4960805;28;93952;-57
2023/05/19 03:56:06;;;;;;;1.07;0.70;;;23.30;43.50;;;;;;4960261;28;92876;-57
2023/05/19 03:58:35;;;;;;;1.27;1.10;;;23.30;42.90;;;;;;4961308;28;92214;-58
2023/05/19 04:01:03;;;;;;;3.33;1.33;;;23.30;42.90;;;;;;4960395;28;94275;-57
2023/05/19 04:03:31;;;;;;;1.73;1.07;;;23.30;42.90;;;;;;4960315;28;93868;-57
2023/05/19 04:06:00;;;;;;;1.30;1.20;;;23.30;43.50;;;;;;4961065;28;92127;-57
2023/05/19 04:08:29;;;;;;;2.13;1.20;;;23.30;42.90;;;;;;4960720;28;92122;-57
2023/05/19 04:10:57;;;;;;;2.30;1.30;;;23.30;42.90;;;;;;4961172;28;94118;-58
2023/05/19 04:13:25;;;;;;;1.40;1.30;;;23.30;42.90;;;;;;4961341;28;93861;-59
2023/05/19 04:15:53;;;;;;;3.23;1.37;;;23.30;42.90;;;;;;4961989;28;92116;-58
2023/05/19 04:18:21;;;;;;;2.20;1.10;;;23.30;42.80;;;;;;4961395;28;92079;-58
2023/05/19 04:20:49;;;;;;;1.83;1.10;;;23.30;42.80;;;;;;4960635;28;95096;-58
2023/05/19 04:23:18;;;;;;;3.03;1.00;;;23.30;42.80;;;;;;4961025;28;93731;-58
2023/05/19 04:25:48;;;;;;;1.37;1.23;;;23.30;42.80;;;;;;4964466;28;92088;-60
2023/05/19 04:28:16;;;;;;;8.67;1.10;;;23.40;42.90;;;;;;4960914;28;92137;-58
2023/05/19 04:30:45;;;;;;;1.43;1.30;;;23.40;42.90;;;;;;4960867;28;93141;-58
2023/05/19 04:33:13;;;;;;;1.50;1.20;;;23.40;42.80;;;;;;4959674;28;92692;-58
2023/05/19 04:35:42;;;;;;;0.67;0.67;;;23.60;43.40;;;;;;4960417;28;92143;-58
2023/05/19 04:38:10;;;;;;;1.43;1.10;;;23.70;43.20;;;;;;4958469;28;91869;-58
2023/05/19 04:40:41;;;;;;;1.77;1.30;;;23.90;42.50;;;;;;4959543;28;94294;-57
2023/05/19 04:43:10;;;;;;;4.03;1.10;;;24.00;42.40;;;;;;4949480;28;94015;-58
2023/05/19 04:45:41;;;;;;;2.13;1.07;;;23.90;42.30;;;;;;4960272;28;93038;-58
2023/05/19 04:48:09;;;;;;;2.13;0.93;;;23.90;42.30;;;;;;4959951;28;92205;-58
2023/05/19 04:50:40;;;;;;;1.30;0.90;;;23.90;42.40;;;;;;4962338;28;94242;-58
2023/05/19 04:53:09;;;;;;;3.90;1.40;;;23.90;42.40;;;;;;4958962;28;92738;-57
2023/05/19 04:55:37;;;;;;;0.80;0.80;;;23.90;42.40;;;;;;4959564;28;92133;-58
2023/05/19 04:58:05;;;;;;;2.13;1.10;;;23.90;42.40;;;;;;4960377;28;92066;-57
2023/05/19 05:00:35;;;;;;;1.20;1.10;;;23.90;42.40;;;;;;4959900;28;94255;-57
2023/05/19 05:03:04;;;;;;;6.40;1.03;;;23.90;42.40;;;;;;4960471;28;93902;-57
2023/05/19 05:05:32;;;;;;;2.10;1.20;;;23.90;42.40;;;;;;4960174;28;92114;-58
2023/05/19 05:08:00;;;;;;;0.60;0.60;;;23.90;42.40;;;;;;4959757;28;92045;-58
2023/05/19 05:10:28;;;;;;;0.73;0.70;;;23.90;42.40;;;;;;4960043;28;95216;-57
2023/05/19 05:12:57;;;;;;;1.33;0.93;;;23.90;42.40;;;;;;4960020;28;93917;-57
2023/05/19 05:15:27;;;;;;;0.70;0.70;;;23.90;42.40;;;;;;4977073;28;91837;-57
2023/05/19 05:17:57;;;;;;;1.50;1.03;;;23.90;42.40;;;;;;4979625;28;92529;-57
2023/05/19 05:20:26;;;;;;;1.37;1.00;;;23.90;42.40;;;;;;4979896;28;94102;-58
2023/05/19 05:22:56;;;;;;;0.83;0.83;;;23.90;42.40;;;;;;4979660;28;92798;-57
2023/05/19 05:25:25;;;;;;;0.83;0.80;;;23.90;42.40;;;;;;4962052;28;92143;-57
2023/05/19 05:27:53;;;;;;;0.80;0.70;;;23.90;42.40;;;;;;4959997;28;92346;-58
2023/05/19 05:30:21;;;;;;;0.80;0.80;;;24.00;42.40;;;;;;4958752;28;93161;-57
2023/05/19 05:32:49;;;;;;;3.80;0.97;;;24.00;42.40;;;;;;4958452;28;94111;-57
2023/05/19 05:35:18;;;;;;;0.83;0.83;;;24.00;42.40;;;;;;4957333;28;93136;-54
2023/05/19 05:37:46;;;;;;;1.40;0.77;;;24.00;42.40;;;;;;4958355;28;92033;-56
2023/05/19 05:40:14;;;;;;;0.67;0.53;;;24.00;42.40;;;;;;4958262;28;92131;-53
2023/05/19 05:42:43;;;;;;;0.70;0.70;;;24.00;42.40;;;;;;4957532;28;92955;-54
2023/05/19 05:45:11;;;;;;;1.60;0.80;;;24.00;43.10;;;;;;4956346;28;92088;-52
2023/05/19 05:47:40;;;;;;;1.17;0.60;;;24.10;42.60;;;;;;4958846;28;92051;-54
2023/05/19 05:50:09;;;;;;;1.77;0.70;;;24.10;42.70;;;;;;4957698;28;94293;-54
2023/05/19 05:52:38;;;;;;;0.80;0.80;;;24.10;42.80;;;;;;4955865;28;92948;-55
2023/05/19 05:55:08;;;;;;;0.70;0.70;;;24.00;42.80;;;;;;4957808;28;93874;-54
2023/05/19 05:57:36;;;;;;;1.17;0.87;;;24.10;43.00;;;;;;4957762;28;92304;-54
2023/05/19 06:00:06;;;;;;;1.60;1.30;;;24.10;43.10;;;;;;4956535;28;94256;-54
2023/05/19 06:02:35;;;;;;;1.70;1.07;;;24.10;43.20;;;;;;4957311;28;94910;-53
2023/05/19 06:05:04;;;;;;;6.80;1.07;;;24.10;43.30;;;;;;4958001;28;92088;-55
2023/05/19 06:07:32;;;;;;;1.10;1.00;;;24.10;43.40;;;;;;4958312;28;91990;-54
2023/05/19 06:10:02;;;;;;;0.53;0.50;;;24.10;43.50;;;;;;4958109;28;94302;-55
2023/05/19 06:12:30;;;;;;;1.57;0.97;;;24.10;43.60;;;;;;4957107;28;94149;-54
2023/05/19 06:14:58;;;;;;;1.03;0.80;;;24.10;43.60;;;;;;4961532;28;92133;-55
2023/05/19 06:17:26;;;;;;;0.87;0.70;;;24.10;43.70;;;;;;4961463;28;91341;-54
2023/05/19 06:19:54;;;;;;;0.40;0.40;;;24.10;43.70;;;;;;4961192;28;93205;-57
2023/05/19 06:22:22;;;;;;;0.97;0.80;;;24.20;43.90;;;;;;4960822;28;93958;-54
2023/05/19 06:24:50;;;;;;;1.17;0.70;;;24.20;44.00;;;;;;4961860;28;93140;-53
2023/05/19 06:27:19;;;;;;;1.30;1.00;;;24.20;44.70;;;;;;4961408;28;93582;-54
2023/05/19 06:29:47;;;;;;;0.67;0.67;;;24.20;44.20;;;;;;4961261;28;93322;-54
2023/05/19 06:32:15;;;;;;;1.10;1.00;;;24.30;44.30;;;;;;4961267;28;93921;-54
2023/05/19 06:34:43;;;;;;;0.80;0.80;;;24.30;44.40;;;;;;4959522;28;92083;-55
2023/05/19 06:37:13;;;;;;;0.83;0.80;;;24.30;44.50;;;;;;4960154;28;92357;-54
2023/05/19 06:39:41;;;;;;;1.10;0.50;;;24.40;44.60;;;;;;4960579;28;94254;-55
2023/05/19 06:42:09;;;;;;;0.80;0.70;;;24.40;45.30;;;;;;4960786;28;92826;-54
2023/05/19 06:44:39;;;;;;;1.87;0.77;;;24.30;44.60;;;;;;4960559;28;93138;-54
2023/05/19 06:47:07;;;;;;;0.73;0.70;;;24.30;44.70;;;;;;4960729;28;93285;-54
2023/05/19 06:49:35;;;;;;;0.73;0.70;;;24.40;44.80;;;;;;4960130;28;94089;-54
2023/05/19 06:52:03;;;;;;;2.47;0.97;;;24.30;44.70;;;;;;4960711;28;93695;-54
2023/05/19 06:54:31;;;;;;;1.07;0.83;;;24.30;44.70;;;;;;4961453;28;92089;-54
2023/05/19 06:56:59;;;;;;;0.60;0.60;;;24.30;44.80;;;;;;4960801;28;92207;-54
2023/05/19 06:59:27;;;;;;;3.27;0.80;;;24.30;44.80;;;;;;4960241;28;93177;-54
2023/05/19 07:01:56;;;;;;;3.43;0.93;;;24.30;44.80;;;;;;4960490;28;92929;-54
2023/05/19 07:04:25;;;;;;;0.93;0.70;;;24.30;44.80;;;;;;4960859;28;92024;-55
2023/05/19 07:06:53;;;;;;;0.80;0.60;;;24.30;44.80;;;;;;4961571;28;91208;-56
2023/05/19 07:09:21;;;;;;;2.47;0.60;;;24.30;44.80;;;;;;4960869;28;93181;-55
2023/05/19 07:11:49;;;;;;;1.40;0.80;;;24.30;44.80;;;;;;4960398;28;92996;-54
2023/05/19 07:14:17;;;;;;;0.70;0.70;;;24.30;44.80;;;;;;4960226;28;92947;-54
2023/05/19 07:16:45;;;;;;;0.73;0.67;;;24.30;44.80;;;;;;4960424;28;92139;-54
2023/05/19 07:19:15;;;;;;;1.57;0.60;;;24.30;44.80;;;;;;4959641;28;92927;-54
2023/05/19 07:21:43;;;;;;;1.47;1.00;;;24.40;44.90;;;;;;4960734;28;92850;-54
2023/05/19 07:24:11;;;;;;;0.60;0.60;;;24.40;44.90;;;;;;4960073;28;92114;-54
2023/05/19 07:26:39;;;;;;;1.80;1.07;;;24.40;44.80;;;;;;4960097;28;92325;-54
2023/05/19 07:29:07;;;;;;;2.07;0.73;;;24.40;44.80;;;;;;4959142;28;93348;-61
2023/05/19 07:31:35;;;;;;;5.90;1.03;;;24.40;44.80;;;;;;4960383;28;93845;-62
2023/05/19 07:34:04;;;;;;;1.63;0.90;;;24.40;44.70;;;;;;4960405;28;92205;-61
2023/05/19 07:36:33;;;;;;;1.73;0.90;;;24.30;44.40;;;;;;4958083;28;92070;-61
2023/05/19 07:39:02;;;;;;;5.43;0.93;;;24.30;44.30;;;;;;4959686;28;95181;-62
2023/05/19 07:41:30;;;;;;;1.07;0.80;;;24.30;44.20;;;;;;4959017;28;92901;-55
2023/05/19 07:43:59;;;;;;;1.60;0.80;;;24.30;44.10;;;;;;4960458;28;92875;-59
2023/05/19 07:46:27;;;;;;;2.90;0.83;;;24.20;43.90;;;;;;4960060;28;92085;-62
2023/05/19 07:48:56;;;;;;;1.63;0.87;;;24.20;43.80;;;;;;4959414;28;93414;-60
2023/05/19 07:51:24;;;;;;;0.77;0.77;;;24.20;43.70;;;;;;4959021;28;94049;-64
2023/05/19 07:53:53;;;;;;;1.20;0.93;;;24.20;43.70;;;;;;4959906;28;92529;-63
2023/05/19 07:56:21;;;;;;;0.70;0.70;;;24.20;43.60;;;;;;4959254;28;91457;-63
2023/05/19 07:58:49;;;;;;;2.53;0.60;;;24.20;43.50;;;;;;4959183;28;94295;-63
2023/05/19 08:01:17;;;;;;;0.73;0.73;;;24.10;43.40;;;;;;4956293;28;93985;-63
2023/05/19 08:03:45;;;;;;;0.87;0.87;;;24.10;43.40;;;;;;4961309;28;93056;-62
2023/05/19 08:06:14;;;;;;;0.87;0.60;;;24.10;43.30;;;;;;4958737;28;92041;-61
2023/05/19 08:08:42;;;;;;;0.60;0.50;;;24.10;43.30;;;;;;4955934;28;94297;-61
2023/05/19 08:11:11;;;;;;;2.23;0.87;;;24.10;43.30;;;;;;4957949;28;94000;-61
2023/05/19 08:13:39;;;;;;;1.00;0.60;;;24.10;43.30;;;;;;4959842;28;93264;-60
2023/05/19 08:16:07;;;;;;;0.70;0.60;;;24.10;43.10;;;;;;4960174;28;92005;-60
2023/05/19 08:18:36;;;;;;;3.80;0.80;;;24.10;43.00;;;;;;4959666;28;94175;-60
2023/05/19 08:21:05;;;;;;;3.63;0.80;;;24.10;42.90;;;;;;4959004;28;92899;-60
2023/05/19 08:23:33;;;;;;;4.10;1.00;;;24.00;42.80;;;;;;4959738;28;92269;-60
2023/05/19 08:26:01;;;;;;;0.87;0.73;;;24.00;42.80;;;;;;4959081;28;92212;-58
2023/05/19 08:28:30;;;;;;;4.27;1.27;;;24.00;42.60;;;;;;4958044;28;94232;-61
2023/05/19 08:30:59;;;;;;;1.00;0.53;;;24.00;42.70;;;;;;4957490;28;94953;-56
2023/05/19 08:33:27;;;;;;;0.70;0.60;;;24.00;42.60;;;;;;4957759;28;93225;-62
2023/05/19 08:35:57;;;;;;;1.77;0.80;;;24.00;42.60;;;;;;4957158;28;92896;-62
2023/05/19 08:38:25;;;;;;;1.07;0.60;;;24.00;42.50;;;;;;4958458;28;94310;-57
2023/05/19 08:40:53;;;;;;;3.33;0.83;;;24.00;42.50;;;;;;4959486;28;92775;-62
2023/05/19 08:43:21;;;;;;;1.63;0.73;;;24.00;42.50;;;;;;4957265;28;92015;-62
2023/05/19 08:45:52;;;;;;;1.90;0.70;;;24.00;42.40;;;;;;4960676;28;91393;-61
2023/05/19 08:48:20;;;;;;;1.20;1.10;;;24.00;42.40;;;;;;4957483;28;94132;-57
2023/05/19 08:50:54;;;;;;;1.87;0.77;;;24.00;42.30;;;;;;4958526;28;93977;-60
2023/05/19 08:53:24;;;;;;;0.70;0.53;;;24.00;42.30;;;;;;4968345;28;93211;-60
2023/05/19 08:56:02;;;;;;;1.13;0.87;;;24.00;42.90;;;;;;4960005;28;92100;-60
2023/05/19 08:58:30;;;;;;;2.33;0.80;;;24.00;42.20;;;;;;4960087;28;93121;-60
2023/05/19 09:01:00;;;;;;;8.43;1.03;;;23.90;42.10;;;;;;4957487;28;94061;-60
2023/05/19 09:03:29;;;;;;;2.90;1.00;;;23.90;42.00;;;;;;4960417;28;92057;-60
2023/05/19 09:05:57;;;;;;;0.70;0.70;;;23.90;41.90;;;;;;4960930;28;92095;-60
2023/05/19 09:08:25;;;;;;;2.47;1.07;;;23.90;41.90;;;;;;4959346;28;93140;-60
2023/05/19 09:10:53;;;;;;;2.13;0.90;;;23.90;41.90;;;;;;4959254;28;93916;-59
2023/05/19 09:13:21;;;;;;;1.00;0.73;;;23.90;41.90;;;;;;4973031;28;92212;-59
2023/05/19 09:15:49;;;;;;;2.40;0.70;;;23.90;41.80;;;;;;4959749;28;92077;-59
2023/05/19 09:18:19;;;;;;;0.57;0.57;;;23.90;41.80;;;;;;4959143;28;95374;-60
2023/05/19 09:20:47;;;;;;;1.73;1.10;;;23.90;41.70;;;;;;4957679;28;95003;-60
2023/05/19 09:23:16;;;;;;;2.27;1.00;;;23.90;41.70;;;;;;4959460;28;92030;-59
2023/05/19 09:25:48;;;;;;;0.50;0.50;;;23.90;41.70;;;;;;4959936;28;92056;-59
2023/05/19 09:28:24;;;;;;;2.07;0.63;;;23.90;41.60;;;;;;4956858;28;93288;-58
2023/05/19 09:30:59;;;;;;;0.83;0.40;;;23.80;41.50;;;;;;4958890;28;92109;-58
2023/05/19 09:33:29;;;;;;;3.03;0.90;;;23.80;41.40;;;;;;4958764;28;93290;-57
2023/05/19 09:35:57;;;;;;;1.87;0.50;;;23.80;41.30;;;;;;4959664;28;91442;-60
2023/05/19 09:38:26;;;;;;;1.43;0.60;;;23.80;41.20;;;;;;4958565;28;93274;-60
2023/05/19 09:40:56;;;;;;;1.67;0.60;;;23.80;41.20;;;;;;4958407;28;93128;-59
2023/05/19 09:43:24;;;;;;;0.60;0.60;;;23.80;41.10;;;;;;4959242;28;93887;-60
2023/05/19 09:45:55;;;;;;;0.90;0.70;;;23.80;41.10;;;;;;4960053;28;92544;-59
2023/05/19 09:48:25;;;;;;;4.60;0.60;;;23.80;41.00;;;;;;4940256;28;92081;-60
2023/05/19 09:50:56;;;;;;;1.00;0.70;;;23.80;40.80;;;;;;4940037;28;93898;-60
2023/05/19 09:53:24;;;;;;;0.80;0.80;;;23.80;40.80;;;;;;4940103;28;92053;-59
2023/05/19 09:55:56;;;;;;;4.97;0.90;;;23.80;40.70;;;;;;4940157;28;92093;-60
2023/05/19 09:58:25;;;;;;;1.57;0.70;;;23.80;40.60;;;;;;4942261;28;94445;-60
2023/05/19 10:00:54;;;;;;;2.37;0.90;;;23.90;40.60;;;;;;4959694;28;93936;-59
2023/05/19 10:03:22;;;;;;;2.83;1.07;;;23.90;40.50;;;;;;4959665;28;92067;-59
2023/05/19 10:05:51;;;;;;;2.30;0.57;;;23.80;40.30;;;;;;4959454;28;92062;-59
2023/05/19 10:08:20;;;;;;;3.10;0.77;;;23.80;40.40;;;;;;4957174;28;94246;-59
2023/05/19 10:10:48;;;;;;;1.43;0.77;;;23.80;40.20;;;;;;4958800;28;93877;-59
2023/05/19 10:13:16;;;;;;;1.13;0.70;;;23.80;40.10;;;;;;4959065;28;92143;-59
2023/05/19 10:15:45;;;;;;;1.10;0.80;;;23.80;39.90;;;;;;4958876;28;91864;-59
2023/05/19 10:18:25;;;;;;;0.63;0.60;;;23.80;39.80;;;;;;4959456;28;93210;-59
2023/05/19 10:20:53;;;;;;;1.67;0.70;;;23.80;39.70;;;;;;4959179;28;92782;-59
2023/05/19 10:23:23;;;;;;;3.17;1.00;;;23.80;39.70;;;;;;4959083;28;92016;-59
2023/05/19 10:25:51;;;;;;;1.03;0.70;;;23.80;39.60;;;;;;4959526;28;91444;-59
2023/05/19 10:28:22;;;;;;;3.03;0.90;;;23.70;39.40;;;;;;4958583;28;93149;-59
2023/05/19 10:30:50;;;;;;;2.40;0.73;;;23.70;39.40;;;;;;4959028;28;92772;-59
2023/05/19 10:33:19;;;;;;;0.80;0.50;;;23.70;39.30;;;;;;4959045;28;93007;-59
2023/05/19 10:36:08;;;;;;;1.13;0.53;;;23.70;39.30;;;;;;4959275;28;92123;-59
2023/05/19 10:38:41;;;;;;;3.67;1.00;;;23.70;39.30;;;;;;4959089;28;93836;-59
2023/05/19 10:41:16;;;;;;;0.57;0.57;;;23.80;39.40;;;;;;4958872;28;92632;-59
2023/05/19 10:43:49;;;;;;;0.70;0.70;;;23.70;39.30;;;;;;4959351;28;92060;-59
2023/05/19 10:46:17;;;;;;;1.00;0.53;;;23.80;39.30;;;;;;4959250;28;91963;-59
2023/05/19 10:48:45;;;;;;;0.80;0.80;;;23.80;39.20;;;;;;4958909;28;94228;-59
2023/05/19 10:51:15;;;;;;;1.07;0.70;;;23.80;39.20;;;;;;4959135;28;92852;-59
2023/05/19 10:53:48;;;;;;;1.57;0.60;;;23.70;39.10;;;;;;4959456;28;92615;-59
2023/05/19 10:56:31;;;;;;;1.23;0.90;;;23.80;39.20;;;;;;4958871;28;93177;-58
2023/05/19 10:58:59;;;;;;;1.83;0.73;;;23.80;39.10;;;;;;4960843;28;95087;-59
2023/05/19 11:01:31;;;;;;;1.53;0.40;;;23.80;39.10;;;;;;4961961;28;94735;-59
2023/05/19 11:04:05;;;;;;;2.73;0.70;;;23.80;39.10;;;;;;4962519;28;91937;-59
2023/05/19 11:06:34;;;;;;;3.17;0.77;;;23.80;39.00;;;;;;4962211;28;92097;-58
2023/05/19 11:09:13;;;;;;;2.73;0.60;;;23.80;38.90;;;;;;4961841;28;92731;-59
2023/05/19 11:11:46;;;;;;;0.90;0.70;;;23.80;38.90;;;;;;4961332;28;93933;-59
2023/05/19 11:14:15;;;;;;;1.23;0.83;;;23.80;38.90;;;;;;4962363;28;91909;-59
2023/05/19 11:16:46;;;;;;;2.13;0.90;;;23.80;38.90;;;;;;4961247;28;91365;-59
2023/05/19 11:19:19;;;;;;;0.73;0.73;;;23.80;38.90;;;;;;4960113;28;93480;-60
2023/05/19 11:21:49;;;;;;;0.93;0.93;;;23.80;38.80;;;;;;4954572;28;92824;-58
2023/05/19 11:24:38;;;;;;;1.67;0.80;;;23.90;39.00;;;;;;4961164;28;92940;-59
2023/05/19 11:27:26;;;;;;;0.83;0.70;;;23.90;38.90;;;;;;4961659;28;92083;-58
2023/05/19 11:29:55;;;;;;;0.40;0.30;;;23.90;38.90;;;;;;4961305;28;93328;-58
2023/05/19 11:32:25;;;;;;;2.33;0.90;;;23.90;38.80;;;;;;4961612;28;92940;-58
2023/05/19 11:34:53;;;;;;;1.27;0.70;;;23.90;38.80;;;;;;4961690;28;92072;-58
2023/05/19 11:37:22;;;;;;;2.50;0.80;;;23.90;38.70;;;;;;4961441;28;91977;-59
2023/05/19 11:39:51;;;;;;;2.67;0.70;;;23.90;38.60;;;;;;4958688;28;94258;-60
2023/05/19 11:42:20;;;;;;;2.77;0.63;;;23.90;38.50;;;;;;4959427;28;92762;-59
2023/05/19 11:44:49;;;;;;;2.40;0.70;;;24.00;38.60;;;;;;4960243;28;92038;-59
2023/05/19 11:47:17;;;;;;;3.50;0.73;;;24.00;38.60;;;;;;4961197;28;92052;-59
2023/05/19 11:49:45;;;;;;;1.10;0.60;;;24.00;38.60;;;;;;4961216;28;95081;-59
2023/05/19 11:52:13;;;;;;;1.03;0.50;;;24.00;38.60;;;;;;4961149;28;94903;-59
2023/05/19 11:54:41;;;;;;;0.97;0.87;;;24.00;38.70;;;;;;4961458;28;91993;-59
2023/05/19 11:57:12;;;;;;;0.70;0.70;;;24.00;38.60;;;;;;4961537;28;92036;-59
2023/05/19 11:59:44;;;;;;;0.87;0.80;;;24.00;38.60;;;;;;4961464;28;93061;-59
2023/05/19 12:02:17;;;;;;;1.07;0.83;;;24.00;38.60;;;;;;4960838;28;93801;-59
2023/05/19 12:04:45;;;;;;;0.97;0.70;;;24.00;38.60;;;;;;4961186;28;91964;-59
2023/05/19 12:07:16;;;;;;;2.57;0.77;;;24.00;38.60;;;;;;4961362;28;91903;-59
2023/05/19 12:09:45;;;;;;;4.27;0.87;;;24.00;38.60;;;;;;4959821;28;94350;-59
2023/05/19 12:12:15;;;;;;;0.57;0.57;;;24.10;38.70;;;;;;4960849;28;93877;-59
2023/05/19 12:14:44;;;;;;;1.03;0.87;;;24.10;38.70;;;;;;4961248;28;92988;-60
2023/05/19 12:17:13;;;;;;;2.87;0.87;;;24.10;38.70;;;;;;4961081;28;92064;-59
2023/05/19 12:19:41;;;;;;;0.80;0.80;;;24.00;38.60;;;;;;4960940;28;92118;-59
2023/05/19 12:22:09;;;;;;;0.57;0.57;;;24.00;38.50;;;;;;4960883;28;92824;-59
2023/05/19 12:24:37;;;;;;;3.07;0.83;;;24.10;38.50;;;;;;4961425;28;91930;-59
2023/05/19 12:27:09;;;;;;;0.50;0.50;;;24.10;38.60;;;;;;4961136;28;92196;-59
2023/05/19 12:29:39;;;;;;;2.20;0.70;;;24.10;38.60;;;;;;4960746;28;94358;-59
2023/05/19 12:32:08;;;;;;;1.10;0.63;;;24.10;38.50;;;;;;4960978;28;93929;-59
2023/05/19 12:34:37;;;;;;;1.47;0.70;;;24.20;38.60;;;;;;4961202;28;92277;-59
2023/05/19 12:37:05;;;;;;;0.97;0.80;;;24.20;38.50;;;;;;4960683;28;92127;-59
2023/05/19 12:39:33;;;;;;;0.60;0.50;;;24.20;39.20;;;;;;4959986;28;95083;-59
2023/05/19 12:42:02;;;;;;;0.90;0.70;;;24.20;38.50;;;;;;4960372;28;93795;-59
2023/05/19 12:44:31;;;;;;;4.13;1.10;;;24.20;38.40;;;;;;4961027;28;91897;-59
2023/05/19 12:47:00;;;;;;;1.13;0.83;;;24.20;38.40;;;;;;4960866;28;92682;-59
2023/05/19 12:49:28;;;;;;;1.10;0.90;;;24.20;38.40;;;;;;4959763;28;93291;-59
2023/05/19 12:51:56;;;;;;;3.63;1.03;;;24.20;38.40;;;;;;4960372;28;92858;-59
2023/05/19 12:54:25;;;;;;;0.60;0.60;;;24.20;38.90;;;;;;4960907;28;91846;-59
2023/05/19 12:56:53;;;;;;;2.20;1.20;;;24.20;38.30;;;;;;4960911;28;91460;-59
2023/05/19 12:59:22;;;;;;;3.47;0.73;;;24.20;38.20;;;;;;4960206;28;94158;-59
2023/05/19 13:02:06;;;;;;;1.23;0.90;;;24.30;38.30;;;;;;4960267;28;93774;-59
2023/05/19 13:04:34;;;;;;;0.80;0.70;;;24.30;38.20;;;;;;4960176;28;92964;-59
2023/05/19 13:07:03;;;;;;;0.70;0.70;;;24.30;38.20;;;;;;4960339;28;92067;-59
2023/05/19 13:09:33;;;;;;;5.20;1.10;;;24.30;38.10;;;;;;4960117;28;94297;-59
2023/05/19 13:12:03;;;;;;;2.67;0.60;;;24.30;38.10;;;;;;4959709;28;93797;-59
2023/05/19 13:14:31;;;;;;;0.60;0.60;;;24.30;38.10;;;;;;4960711;28;92015;-59
2023/05/19 13:16:59;;;;;;;2.60;0.70;;;24.30;38.10;;;;;;4960104;28;92067;-59
2023/05/19 13:19:29;;;;;;;1.70;0.83;;;24.30;38.00;;;;;;4959750;28;94254;-59
2023/05/19 13:21:57;;;;;;;3.40;0.93;;;24.30;38.00;;;;;;4959549;28;94050;-59
2023/05/19 13:24:25;;;;;;;0.77;0.60;;;24.30;38.00;;;;;;4959848;28;92086;-59
2023/05/19 13:26:53;;;;;;;4.80;0.93;;;24.30;37.90;;;;;;4959732;28;92234;-59
2023/05/19 13:29:23;;;;;;;4.83;0.67;;;24.30;37.90;;;;;;4958377;28;94123;-59
2023/05/19 13:31:51;;;;;;;2.77;1.13;;;24.30;37.90;;;;;;4959607;28;93744;-59
2023/05/19 13:34:19;;;;;;;0.70;0.60;;;24.40;37.90;;;;;;4960354;28;92090;-59
2023/05/19 13:36:48;;;;;;;1.23;0.53;;;24.40;37.90;;;;;;4959959;28;92140;-59
2023/05/19 13:39:16;;;;;;;1.17;0.67;;;24.40;38.00;;;;;;4959380;28;94042;-59